Time;durP1;ratioP1;P1;durP2;ratioP2;P2;SDS_P1;SDS_P2;PMS_P1;PMS_P2;Temp;Humidity;BMP_temperature;BMP_pressure;BME280_temperature;BME280_humidity;BME280_pressure;Samples;Min_cycle;Max_cycle;Signal;HPM_P1;HPM_P2
2021/04/14 00:01:53;;;;;;;2.25;0.90;;;0.20;99.90;;;;;;5049699;28;20029;-74
2021/04/14 00:04:19;;;;;;;0.73;0.73;;;0.20;99.90;;;;;;5050483;28;20021;-74
2021/04/14 00:06:45;;;;;;;2.80;1.00;;;0.20;99.90;;;;;;5049807;28;20498;-74
2021/04/14 00:09:10;;;;;;;1.90;1.13;;;0.10;99.90;;;;;;5050085;28;20082;-73
2021/04/14 00:11:37;;;;;;;1.75;0.95;;;0.00;99.90;;;;;;5049468;28;20509;-73
2021/04/14 00:14:05;;;;;;;1.30;1.20;;;0.00;99.90;;;;;;5046522;28;20112;-74
2021/04/14 00:16:31;;;;;;;2.13;0.90;;;0.00;99.90;;;;;;5049672;28;20017;-74
2021/04/14 00:18:56;;;;;;;2.03;1.13;;;0.00;99.90;;;;;;5050078;28;20077;-74
2021/04/14 00:21:24;;;;;;;1.42;0.98;;;0.00;99.90;;;;;;5049601;28;20033;-74
2021/04/14 00:23:51;;;;;;;2.33;1.00;;;0.00;99.90;;;;;;5042624;28;20045;-73
2021/04/14 00:26:16;;;;;;;2.55;1.00;;;-0.10;99.90;;;;;;5049583;28;20029;-73
2021/04/14 00:28:44;;;;;;;3.72;1.17;;;0.00;99.90;;;;;;5048713;28;20098;-73
2021/04/14 00:31:14;;;;;;;2.50;1.08;;;0.00;99.90;;;;;;5039201;28;20056;-74
2021/04/14 00:33:42;;;;;;;2.63;0.80;;;0.00;99.90;;;;;;5048014;28;20166;-73
2021/04/14 00:36:09;;;;;;;5.88;1.08;;;-0.10;99.90;;;;;;5040150;28;20020;-74
2021/04/14 00:38:34;;;;;;;2.53;0.80;;;-0.10;99.90;;;;;;5049939;28;20040;-73
2021/04/14 00:41:14;;;;;;;2.45;1.20;;;-0.10;99.90;;;;;;5049127;28;20037;-74
2021/04/14 00:43:40;;;;;;;1.10;1.00;;;-0.10;99.90;;;;;;5048673;28;20025;-73
2021/04/14 00:46:06;;;;;;;1.38;0.75;;;-0.10;99.90;;;;;;5048457;28;20100;-74
2021/04/14 00:48:33;;;;;;;5.63;1.10;;;-0.10;99.90;;;;;;5048928;28;20025;-74
2021/04/14 00:51:00;;;;;;;3.63;1.30;;;-0.10;99.90;;;;;;5048954;28;20044;-74
2021/04/14 00:53:27;;;;;;;2.55;1.10;;;-0.10;99.90;;;;;;5040094;28;20029;-73
2021/04/14 00:55:53;;;;;;;4.93;1.30;;;-0.10;99.90;;;;;;5049676;28;20032;-74
2021/04/14 00:58:19;;;;;;;4.10;1.23;;;-0.10;99.90;;;;;;5047522;28;20115;-74
2021/04/14 01:00:50;;;;;;;2.53;1.00;;;-0.10;99.90;;;;;;5045053;28;20432;-74
2021/04/14 01:03:16;;;;;;;1.73;0.98;;;-0.10;99.90;;;;;;5041575;28;20033;-74
2021/04/14 01:05:42;;;;;;;2.65;0.93;;;-0.10;99.90;;;;;;5047713;28;20027;-73
2021/04/14 01:08:08;;;;;;;1.88;0.80;;;-0.20;99.90;;;;;;5048700;28;20021;-74
2021/04/14 01:10:34;;;;;;;1.73;1.15;;;-0.20;99.90;;;;;;5046612;28;20094;-74
2021/04/14 01:13:01;;;;;;;2.03;0.90;;;-0.20;99.90;;;;;;5049918;28;20032;-74
2021/04/14 01:15:39;;;;;;;3.67;0.90;;;-0.20;99.90;;;;;;5053590;28;20036;-74
2021/04/14 01:18:08;;;;;;;3.28;1.30;;;-0.20;99.90;;;;;;5049065;28;20025;-74
2021/04/14 01:20:35;;;;;;;4.47;1.00;;;-0.20;99.90;;;;;;5052945;28;20033;-74
2021/04/14 01:23:01;;;;;;;2.85;1.17;;;-0.20;99.90;;;;;;5044172;28;20025;-74
2021/04/14 01:25:35;;;;;;;2.17;1.27;;;-0.30;99.90;;;;;;5053564;28;20043;-74
2021/04/14 01:28:09;;;;;;;1.58;1.00;;;-0.30;99.90;;;;;;5053038;28;20029;-74
2021/04/14 01:30:35;;;;;;;2.10;0.77;;;-0.40;99.90;;;;;;5052818;28;20071;-74
2021/04/14 01:33:01;;;;;;;3.25;1.15;;;-0.30;99.90;;;;;;5052076;28;20271;-74
2021/04/14 01:35:28;;;;;;;3.20;1.38;;;-0.40;99.90;;;;;;5053175;28;20510;-74
2021/04/14 01:37:54;;;;;;;5.88;1.40;;;-0.40;99.90;;;;;;5050711;28;20033;-74
2021/04/14 01:40:22;;;;;;;6.13;1.50;;;-0.40;99.90;;;;;;5052037;28;20040;-74
2021/04/14 01:42:48;;;;;;;3.00;1.45;;;-0.40;99.90;;;;;;5052567;28;20025;-74
2021/04/14 01:45:19;;;;;;;1.30;1.02;;;-0.50;99.90;;;;;;5052600;28;20057;-74
2021/04/14 01:47:44;;;;;;;2.38;1.20;;;-0.50;99.90;;;;;;5050881;28;20037;-74
2021/04/14 01:50:10;;;;;;;2.75;1.10;;;-0.50;99.90;;;;;;5053147;28;20028;-74
2021/04/14 01:52:36;;;;;;;1.98;1.10;;;-0.50;99.90;;;;;;5052417;28;20632;-74
2021/04/14 01:55:03;;;;;;;2.15;1.10;;;-0.60;99.90;;;;;;5026984;28;20407;-74
2021/04/14 01:57:29;;;;;;;2.60;1.20;;;-0.60;99.90;;;;;;5052076;28;20024;-74
2021/04/14 01:59:55;;;;;;;3.33;1.63;;;-0.60;99.90;;;;;;5043400;28;20045;-74
2021/04/14 02:02:21;;;;;;;5.03;1.27;;;-0.70;99.90;;;;;;5052175;28;20025;-74
2021/04/14 02:04:49;;;;;;;2.40;1.30;;;-0.70;99.90;;;;;;5051481;28;20103;-74
2021/04/14 02:07:14;;;;;;;2.55;1.10;;;-0.70;99.90;;;;;;5052315;28;20117;-74
2021/04/14 02:09:40;;;;;;;1.60;1.17;;;-0.70;99.90;;;;;;5052431;28;20115;-74
2021/04/14 02:12:07;;;;;;;2.00;1.48;;;-0.70;99.90;;;;;;5051878;28;20083;-74
2021/04/14 02:14:33;;;;;;;3.45;1.10;;;-0.80;99.90;;;;;;5051335;28;20025;-74
2021/04/14 02:16:59;;;;;;;1.63;1.50;;;-0.80;99.90;;;;;;5041879;28;20036;-74
2021/04/14 02:19:27;;;;;;;1.77;1.20;;;-0.80;99.90;;;;;;5049620;28;20108;-74
2021/04/14 02:21:52;;;;;;;1.55;1.45;;;-0.80;99.90;;;;;;5051851;28;20027;-74
2021/04/14 02:24:18;;;;;;;6.28;1.75;;;-0.80;99.90;;;;;;5052609;28;20024;-74
2021/04/14 02:26:44;;;;;;;3.83;1.23;;;-0.80;99.90;;;;;;5051649;28;20491;-74
2021/04/14 02:29:09;;;;;;;2.38;1.30;;;-0.80;99.90;;;;;;5051221;28;20029;-74
2021/04/14 02:31:36;;;;;;;1.95;1.35;;;-0.80;99.90;;;;;;5042133;28;20044;-75
2021/04/14 02:34:05;;;;;;;3.42;1.73;;;-0.80;99.90;;;;;;5050823;28;20033;-74
2021/04/14 02:36:31;;;;;;;4.60;1.55;;;-0.90;99.90;;;;;;5051669;28;20017;-74
2021/04/14 02:38:57;;;;;;;3.08;1.20;;;-0.90;99.90;;;;;;5052034;28;20036;-74
2021/04/14 02:41:23;;;;;;;1.92;1.13;;;-1.00;99.90;;;;;;5051487;28;20017;-74
2021/04/14 02:43:50;;;;;;;4.88;1.38;;;-1.00;99.90;;;;;;5052178;28;20036;-75
2021/04/14 02:46:16;;;;;;;2.47;1.55;;;-1.10;99.90;;;;;;5042896;28;20101;-74
2021/04/14 02:48:42;;;;;;;3.10;1.50;;;-1.10;99.90;;;;;;5058494;28;20424;-74
2021/04/14 02:51:08;;;;;;;2.63;1.48;;;-1.10;99.90;;;;;;5051389;28;20028;-74
2021/04/14 02:53:34;;;;;;;1.85;1.30;;;-1.20;99.90;;;;;;5051868;28;20044;-74
2021/04/14 02:56:00;;;;;;;4.10;1.67;;;-1.20;99.90;;;;;;5050470;28;20025;-74
2021/04/14 02:58:26;;;;;;;3.75;1.67;;;-1.20;99.90;;;;;;5051439;28;20037;-74
2021/04/14 03:00:52;;;;;;;4.43;1.65;;;-1.20;99.90;;;;;;5051109;28;20108;-74
2021/04/14 03:03:19;;;;;;;3.67;1.73;;;-1.30;99.90;;;;;;5051232;28;20778;-74
2021/04/14 03:05:45;;;;;;;2.72;1.33;;;-1.30;99.90;;;;;;5051503;28;20032;-74
2021/04/14 03:08:11;;;;;;;2.47;1.30;;;-1.30;99.90;;;;;;5050731;28;20044;-74
2021/04/14 03:10:37;;;;;;;4.32;1.45;;;-1.30;99.90;;;;;;5041258;28;20033;-74
2021/04/14 03:13:05;;;;;;;2.25;1.20;;;-1.30;99.90;;;;;;5039470;28;20086;-74
2021/04/14 03:15:38;;;;;;;4.35;1.83;;;-1.30;99.90;;;;;;5051562;28;20024;-74
2021/04/14 03:18:05;;;;;;;2.17;1.60;;;-1.30;99.90;;;;;;5050514;28;20563;-76
2021/04/14 03:20:30;;;;;;;3.28;1.58;;;-1.30;99.90;;;;;;5050946;28;20023;-77
2021/04/14 03:22:56;;;;;;;2.25;1.70;;;-1.40;99.90;;;;;;5041768;28;20104;-77
2021/04/14 03:25:25;;;;;;;4.60;1.85;;;-1.40;99.90;;;;;;5051317;28;20052;-77
2021/04/14 03:27:51;;;;;;;1.65;1.52;;;-1.40;99.90;;;;;;5050573;28;20537;-76
2021/04/14 03:30:18;;;;;;;2.05;1.50;;;-1.40;99.90;;;;;;5051162;28;20021;-76
2021/04/14 03:32:43;;;;;;;5.47;2.33;;;-1.40;99.90;;;;;;5050687;28;20077;-77
2021/04/14 03:35:10;;;;;;;3.13;1.55;;;-1.50;99.90;;;;;;5041050;28;20129;-77
2021/04/14 03:37:35;;;;;;;5.35;1.67;;;-1.50;99.90;;;;;;5045740;28;20040;-78
2021/04/14 03:40:02;;;;;;;4.63;1.67;;;-1.50;99.90;;;;;;5049959;28;20391;-78
2021/04/14 03:42:28;;;;;;;3.45;1.63;;;-1.40;99.90;;;;;;5050486;28;20017;-78
2021/04/14 03:44:56;;;;;;;2.42;1.70;;;-1.40;99.90;;;;;;5049030;28;20029;-77
2021/04/14 03:47:22;;;;;;;1.98;1.33;;;-1.40;99.90;;;;;;5049687;28;20112;-77
2021/04/14 03:49:51;;;;;;;3.35;1.90;;;-1.50;99.90;;;;;;5049523;28;20755;-77
2021/04/14 03:52:17;;;;;;;1.65;1.45;;;-1.50;99.90;;;;;;5047899;28;20073;-76
2021/04/14 03:54:43;;;;;;;3.72;2.17;;;-1.60;99.90;;;;;;5050053;28;20021;-77
2021/04/14 03:57:08;;;;;;;5.35;2.22;;;-1.60;99.90;;;;;;5046720;28;20400;-76
2021/04/14 03:59:34;;;;;;;3.25;2.15;;;-1.50;99.90;;;;;;5050894;28;20053;-77
2021/04/14 04:02:00;;;;;;;2.88;1.70;;;-1.50;99.90;;;;;;5039918;28;20037;-77
2021/04/14 04:04:25;;;;;;;1.83;1.45;;;-1.60;99.90;;;;;;5050259;28;20065;-77
2021/04/14 04:06:52;;;;;;;3.13;1.92;;;-1.70;99.90;;;;;;5048522;28;20049;-77
2021/04/14 04:09:17;;;;;;;3.78;2.10;;;-1.60;99.90;;;;;;5050461;28;20108;-77
2021/04/14 04:11:43;;;;;;;6.20;2.25;;;-1.60;99.90;;;;;;5049704;28;20116;-77
2021/04/14 04:14:10;;;;;;;3.30;1.75;;;-1.60;99.90;;;;;;5050412;28;20468;-76
2021/04/14 04:16:35;;;;;;;4.32;1.75;;;-1.60;99.90;;;;;;5049469;28;20078;-77
2021/04/14 04:19:01;;;;;;;4.63;1.90;;;-1.60;99.90;;;;;;5049027;28;20029;-77
2021/04/14 04:21:27;;;;;;;8.82;1.80;;;-1.60;99.90;;;;;;5049754;28;20033;-77
2021/04/14 04:23:52;;;;;;;2.58;1.67;;;-1.60;99.90;;;;;;5050218;28;20066;-77
2021/04/14 04:26:19;;;;;;;5.57;1.92;;;-1.70;99.90;;;;;;5039611;28;20029;-77
2021/04/14 04:28:45;;;;;;;3.90;1.73;;;-1.60;99.90;;;;;;5050077;28;20092;-77
2021/04/14 04:31:11;;;;;;;1.77;1.33;;;-1.60;99.90;;;;;;5049385;28;20108;-77
2021/04/14 04:33:36;;;;;;;5.15;1.70;;;-1.70;99.90;;;;;;5049970;28;20057;-77
2021/04/14 04:36:03;;;;;;;4.88;2.00;;;-1.70;99.90;;;;;;5039717;28;20507;-77
2021/04/14 04:38:29;;;;;;;5.90;1.63;;;-1.70;99.90;;;;;;5049501;28;20486;-77
2021/04/14 04:40:56;;;;;;;3.78;2.65;;;-1.80;99.90;;;;;;5049305;28;20085;-77
2021/04/14 04:43:22;;;;;;;4.93;2.17;;;-1.70;99.90;;;;;;5032155;28;20029;-77
2021/04/14 04:45:49;;;;;;;5.90;2.78;;;-1.80;99.90;;;;;;5049661;28;20116;-77
2021/04/14 04:48:15;;;;;;;5.18;3.72;;;-1.80;99.90;;;;;;5038057;28;20472;-77
2021/04/14 04:50:41;;;;;;;6.97;4.82;;;-1.80;99.90;;;;;;5046104;28;20107;-77
2021/04/14 04:53:11;;;;;;;6.45;4.70;;;-1.70;99.90;;;;;;5049223;28;20025;-77
2021/04/14 04:55:37;;;;;;;7.35;4.05;;;-1.70;99.90;;;;;;5047822;28;20090;-77
2021/04/14 04:58:03;;;;;;;8.70;3.17;;;-1.70;99.90;;;;;;5048762;28;20509;-77
2021/04/14 05:00:28;;;;;;;4.70;2.78;;;-1.70;99.90;;;;;;5049154;28;20048;-77
2021/04/14 05:02:54;;;;;;;4.07;2.10;;;-1.70;99.90;;;;;;5049384;28;20151;-76
2021/04/14 05:05:27;;;;;;;3.78;1.52;;;-1.70;99.90;;;;;;5049011;28;20171;-77
2021/04/14 05:07:53;;;;;;;2.47;1.63;;;-1.60;99.90;;;;;;5047178;28;20387;-77
2021/04/14 05:10:19;;;;;;;3.47;1.90;;;-1.60;99.90;;;;;;5049336;28;20025;-77
2021/04/14 05:12:49;;;;;;;4.13;1.95;;;-1.60;99.90;;;;;;5049000;28;20021;-77
2021/04/14 05:15:15;;;;;;;2.70;1.80;;;-1.60;99.90;;;;;;5048878;28;20040;-76
2021/04/14 05:17:41;;;;;;;4.22;2.30;;;-1.50;99.90;;;;;;5045970;28;20544;-77
2021/04/14 05:20:07;;;;;;;5.00;2.58;;;-1.40;99.90;;;;;;5045330;28;20021;-77
2021/04/14 05:22:33;;;;;;;3.70;2.03;;;-1.40;99.90;;;;;;5048459;28;20029;-77
2021/04/14 05:24:59;;;;;;;2.60;1.67;;;-1.40;99.90;;;;;;5049300;28;20036;-77
2021/04/14 05:27:26;;;;;;;3.80;1.90;;;-1.30;99.90;;;;;;5048684;28;20029;-77
2021/04/14 05:29:51;;;;;;;5.07;2.25;;;-1.20;99.90;;;;;;5047679;28;20614;-77
2021/04/14 05:32:18;;;;;;;3.95;2.05;;;-1.20;99.90;;;;;;5047410;28;20117;-77
2021/04/14 05:34:44;;;;;;;5.50;2.30;;;-1.10;99.90;;;;;;5047209;28;20098;-77
2021/04/14 05:37:10;;;;;;;6.75;2.10;;;-1.00;99.90;;;;;;5048560;28;20392;-77
2021/04/14 05:39:36;;;;;;;6.38;1.98;;;-1.00;99.90;;;;;;5048105;28;20025;-77
2021/04/14 05:42:02;;;;;;;2.67;1.98;;;-0.80;99.90;;;;;;5048416;28;20191;-77
2021/04/14 05:44:27;;;;;;;4.05;2.00;;;-0.80;99.90;;;;;;5046163;28;20036;-77
2021/04/14 05:46:53;;;;;;;2.83;1.73;;;-0.70;99.90;;;;;;5047917;28;20033;-77
2021/04/14 05:49:19;;;;;;;3.50;1.80;;;-0.60;99.90;;;;;;5016269;28;20555;-74
2021/04/14 05:51:45;;;;;;;2.80;1.88;;;-0.50;99.90;;;;;;5047005;28;20082;-74
2021/04/14 05:54:10;;;;;;;3.65;1.40;;;-0.40;99.90;;;;;;5048933;28;20068;-75
2021/04/14 05:56:36;;;;;;;1.73;1.40;;;-0.10;99.90;;;;;;5048114;28;20021;-74
2021/04/14 05:59:02;;;;;;;3.15;1.83;;;0.20;99.90;;;;;;5049737;28;20414;-74
2021/04/14 06:01:31;;;;;;;2.55;1.60;;;0.70;99.90;;;;;;5052441;28;20017;-74
2021/04/14 06:03:57;;;;;;;2.50;1.13;;;1.30;99.90;;;;;;5033507;28;20587;-74
2021/04/14 06:06:24;;;;;;;3.30;1.35;;;1.70;99.90;;;;;;5048535;28;20112;-74
2021/04/14 06:08:50;;;;;;;4.25;1.15;;;2.00;99.90;;;;;;5033004;28;20033;-74
2021/04/14 06:11:15;;;;;;;3.92;1.25;;;2.10;99.90;;;;;;5051403;28;20492;-74
2021/04/14 06:13:41;;;;;;;1.83;1.33;;;2.20;99.90;;;;;;5047173;28;20037;-74
2021/04/14 06:16:09;;;;;;;2.65;1.85;;;2.20;99.90;;;;;;5049114;28;20485;-74
2021/04/14 06:18:35;;;;;;;2.10;1.33;;;2.10;99.90;;;;;;5051315;28;20032;-74
2021/04/14 06:21:03;;;;;;;2.45;1.52;;;2.10;99.90;;;;;;5045562;28;20790;-73
2021/04/14 06:23:29;;;;;;;3.03;1.88;;;2.20;99.90;;;;;;5047675;28;20076;-74
2021/04/14 06:26:15;;;;;;;3.50;1.60;;;2.40;99.90;;;;;;5051725;28;20487;-74
2021/04/14 06:28:41;;;;;;;;;;;2.50;99.90;;;;;;5050959;28;20013;-74
2021/04/14 06:31:08;;;;;;;4.55;2.08;;;2.90;99.90;;;;;;5049264;28;19960;-74
2021/04/14 06:33:37;;;;;;;6.03;2.95;;;3.30;99.90;;;;;;5049402;28;20055;-74
2021/04/14 06:36:06;;;;;;;2.92;1.90;;;3.70;99.90;;;;;;5049471;28;20088;-74
2021/04/14 06:38:33;;;;;;;3.88;1.75;;;4.10;99.90;;;;;;5043310;28;20060;-74
2021/04/14 06:44:37;;;;;;;3.38;2.50;;;4.20;99.90;;;;;;5042269;28;20033;-74
2021/04/14 06:47:16;;;;;;;5.10;2.70;;;4.20;99.90;;;;;;5048953;28;20029;-74
2021/04/14 06:49:54;;;;;;;7.57;3.05;;;4.00;99.90;;;;;;5048835;28;20045;-74
2021/04/14 06:52:55;;;;;;;5.28;2.45;;;4.00;99.90;;;;;;5051066;28;20029;-73
2021/04/14 06:55:27;;;;;;;2.75;2.10;;;4.20;99.90;;;;;;5049146;28;20109;-74
2021/04/14 06:58:00;;;;;;;2.92;1.95;;;4.60;99.90;;;;;;5049261;28;20104;-73
2021/04/14 07:00:37;;;;;;;4.60;2.20;;;4.80;99.90;;;;;;5049385;28;20033;-74
2021/04/14 07:03:14;;;;;;;3.00;1.80;;;4.70;99.90;;;;;;5050200;28;20029;-73
2021/04/14 07:05:47;;;;;;;2.85;1.90;;;4.80;99.90;;;;;;5044607;28;20041;-73
2021/04/14 07:08:21;;;;;;;4.35;1.65;;;4.90;99.90;;;;;;5049579;28;20037;-73
2021/04/14 07:10:54;;;;;;;2.60;1.80;;;5.00;99.90;;;;;;5048653;28;20033;-73
2021/04/14 07:13:19;;;;;;;3.10;1.83;;;5.30;99.90;;;;;;5051036;28;20021;-73
2021/04/14 07:15:47;;;;;;;6.78;2.10;;;5.50;99.90;;;;;;5051086;28;20523;-73
2021/04/14 07:18:40;;;;;;;7.95;2.42;;;5.90;99.90;;;;;;5042604;28;20516;-73
2021/04/14 07:21:39;;;;;;;4.18;2.42;;;6.60;99.90;;;;;;5045851;28;20025;-74
2021/04/14 07:24:33;;;;;;;4.13;2.67;;;7.60;99.90;;;;;;5043797;28;20041;-73
2021/04/14 07:27:27;;;;;;;4.60;2.38;;;8.50;99.90;;;;;;5045590;28;20048;-73
2021/04/14 07:30:10;;;;;;;5.63;2.28;;;9.00;99.90;;;;;;5039044;28;20029;-73
2021/04/14 07:32:43;;;;;;;3.72;2.22;;;9.20;99.90;;;;;;5044206;28;20059;-74
2021/04/14 07:35:26;;;;;;;2.17;1.98;;;9.70;99.90;;;;;;5032732;28;20037;-73
2021/04/14 07:38:15;;;;;;;2.97;1.92;;;9.90;98.10;;;;;;5046458;28;20036;-74
2021/04/14 07:40:55;;;;;;;3.75;2.33;;;10.30;94.10;;;;;;5046155;28;20119;-73
2021/04/14 07:43:32;;;;;;;2.85;1.83;;;10.40;92.40;;;;;;5046204;28;20029;-73
2021/04/14 07:45:58;;;;;;;4.47;2.50;;;10.30;90.80;;;;;;5046738;28;20075;-72
2021/04/14 07:48:28;;;;;;;4.82;2.08;;;10.60;90.00;;;;;;5044238;28;20071;-73
2021/04/14 07:50:59;;;;;;;2.67;1.90;;;10.70;91.90;;;;;;5024370;28;20025;-73
2021/04/14 07:53:35;;;;;;;2.42;1.88;;;10.70;83.50;;;;;;5044858;28;20025;-72
2021/04/14 07:56:09;;;;;;;4.20;2.20;;;10.10;82.10;;;;;;5043611;28;20453;-72
2021/04/14 07:58:38;;;;;;;4.45;2.05;;;9.70;87.30;;;;;;5043965;28;20058;-73
2021/04/14 08:01:19;;;;;;;4.80;2.08;;;9.60;87.40;;;;;;5044225;28;20426;-73
2021/04/14 08:03:46;;;;;;;2.78;1.50;;;9.30;87.90;;;;;;5045110;28;20029;-73
2021/04/14 08:06:17;;;;;;;2.70;1.80;;;9.30;89.40;;;;;;5041242;28;20028;-72
2021/04/14 08:08:46;;;;;;;3.55;1.65;;;9.50;84.30;;;;;;5043579;28;20035;-72
2021/04/14 08:11:30;;;;;;;2.85;1.70;;;9.40;89.50;;;;;;5043426;28;20074;-73
2021/04/14 08:14:24;;;;;;;2.40;1.65;;;9.50;86.60;;;;;;5042585;28;20044;-72
2021/04/14 08:16:54;;;;;;;3.30;2.22;;;9.70;86.60;;;;;;5044677;28;20028;-72
2021/04/14 08:19:55;;;;;;;2.30;1.67;;;10.00;88.00;;;;;;5043098;28;20021;-72
2021/04/14 08:22:24;;;;;;;3.35;1.70;;;10.40;87.00;;;;;;5040808;28;20029;-73
2021/04/14 08:24:53;;;;;;;5.72;1.88;;;10.70;81.40;;;;;;5045058;28;20029;-73
2021/04/14 08:27:35;;;;;;;3.47;1.67;;;10.70;80.90;;;;;;5043277;28;20502;-72
2021/04/14 08:30:06;;;;;;;4.95;2.20;;;10.80;83.30;;;;;;5044311;28;20033;-73
2021/04/14 08:32:40;;;;;;;3.88;1.52;;;10.80;76.70;;;;;;5044176;28;20078;-73
2021/04/14 08:35:33;;;;;;;2.72;1.70;;;10.70;81.60;;;;;;5044813;28;20033;-73
2021/04/14 08:38:15;;;;;;;2.15;1.33;;;10.90;84.90;;;;;;5046286;28;20114;-73
2021/04/14 08:40:55;;;;;;;3.90;1.63;;;10.80;76.50;;;;;;5045122;28;20032;-73
2021/04/14 08:43:34;;;;;;;2.22;1.27;;;10.10;77.30;;;;;;5046131;28;20082;-73
2021/04/14 08:46:29;;;;;;;3.17;1.80;;;9.70;79.10;;;;;;5045741;28;20056;-73
2021/04/14 08:49:03;;;;;;;2.33;1.40;;;9.30;81.20;;;;;;5041407;28;20577;-73
2021/04/14 08:51:35;;;;;;;3.08;1.40;;;8.90;77.60;;;;;;5045157;28;20020;-74
2021/04/14 08:54:01;;;;;;;3.92;1.45;;;8.70;80.90;;;;;;5048298;28;20523;-72
2021/04/14 08:56:26;;;;;;;2.30;1.40;;;8.40;79.70;;;;;;5048232;28;20052;-72
2021/04/14 08:58:56;;;;;;;2.75;1.33;;;8.20;80.00;;;;;;5048584;28;20031;-73
2021/04/14 09:01:23;;;;;;;3.70;1.42;;;8.00;81.90;;;;;;5048426;28;20025;-72
2021/04/14 09:03:49;;;;;;;2.63;1.58;;;7.80;82.00;;;;;;5046630;28;20039;-72
2021/04/14 09:06:18;;;;;;;4.50;2.33;;;7.70;82.10;;;;;;5048942;28;20033;-72
2021/04/14 09:08:48;;;;;;;3.95;1.50;;;7.50;84.40;;;;;;5048526;28;20040;-72
2021/04/14 09:11:23;;;;;;;3.33;1.67;;;7.30;87.50;;;;;;5048970;28;20037;-75
2021/04/14 09:14:03;;;;;;;3.92;1.33;;;7.30;86.70;;;;;;5049964;28;20116;-75
2021/04/14 09:16:48;;;;;;;3.75;1.70;;;7.30;84.60;;;;;;5046634;28;20025;-72
2021/04/14 09:19:35;;;;;;;2.22;1.40;;;7.30;85.00;;;;;;5049787;28;20059;-72
2021/04/14 09:22:28;;;;;;;2.55;1.23;;;7.20;87.60;;;;;;5044194;28;20047;-73
2021/04/14 09:25:07;;;;;;;3.53;1.10;;;7.40;84.90;;;;;;5047955;28;20060;-72
2021/04/14 09:27:36;;;;;;;2.53;1.27;;;7.40;83.50;;;;;;5029280;28;20647;-72
2021/04/14 09:30:15;;;;;;;2.08;1.58;;;7.50;83.00;;;;;;5049591;28;20094;-72
2021/04/14 09:33:05;;;;;;;4.70;1.40;;;7.50;83.60;;;;;;5039696;28;20029;-72
2021/04/14 09:35:30;;;;;;;3.30;1.45;;;7.60;85.40;;;;;;5050230;28;20025;-72
2021/04/14 09:38:06;;;;;;;1.48;1.23;;;7.60;80.30;;;;;;5053153;28;20487;-72
2021/04/14 09:40:35;;;;;;;4.28;1.40;;;7.50;82.40;;;;;;5052713;28;20396;-73
2021/04/14 09:43:23;;;;;;;3.00;1.27;;;7.50;80.50;;;;;;5053503;28;20031;-72
2021/04/14 09:46:02;;;;;;;1.83;1.30;;;7.20;79.90;;;;;;5046742;28;20032;-72
2021/04/14 09:48:42;;;;;;;2.45;1.00;;;7.00;82.40;;;;;;5050169;28;20106;-72
2021/04/14 09:51:26;;;;;;;1.73;1.13;;;6.80;85.50;;;;;;5053006;28;20025;-73
2021/04/14 09:53:58;;;;;;;1.98;1.20;;;6.70;86.80;;;;;;5033172;28;20553;-73
2021/04/14 09:56:28;;;;;;;3.25;1.10;;;6.70;86.00;;;;;;5051109;28;20021;-73
2021/04/14 09:59:02;;;;;;;1.58;1.00;;;6.70;86.90;;;;;;5049969;28;20498;-72
2021/04/14 10:01:34;;;;;;;2.45;1.35;;;6.70;85.90;;;;;;5051475;28;20062;-72
2021/04/14 10:04:08;;;;;;;1.35;0.90;;;6.70;85.10;;;;;;5041942;28;20034;-72
2021/04/14 10:06:34;;;;;;;3.22;1.52;;;6.70;86.00;;;;;;5049989;28;20547;-72
2021/04/14 10:09:07;;;;;;;1.48;1.10;;;6.70;84.50;;;;;;5049844;28;20029;-72
2021/04/14 10:11:39;;;;;;;3.63;1.00;;;6.80;84.00;;;;;;5049139;28;20029;-73
2021/04/14 10:14:14;;;;;;;1.55;1.17;;;6.90;84.30;;;;;;5045574;28;20028;-73
2021/04/14 10:16:40;;;;;;;2.22;0.88;;;7.00;81.60;;;;;;5046987;28;20024;-72
2021/04/14 10:19:09;;;;;;;0.93;0.70;;;7.10;79.80;;;;;;5046697;28;20036;-73
2021/04/14 10:21:40;;;;;;;4.07;1.17;;;7.10;79.30;;;;;;5022220;28;20113;-73
2021/04/14 10:24:08;;;;;;;2.25;0.80;;;7.10;75.90;;;;;;5045571;28;20040;-73
2021/04/14 10:26:37;;;;;;;3.13;0.85;;;7.10;80.10;;;;;;5046776;28;20395;-74
2021/04/14 10:29:09;;;;;;;1.92;1.05;;;7.00;79.00;;;;;;5047480;28;20029;-74
2021/04/14 10:31:36;;;;;;;2.28;0.88;;;7.10;79.90;;;;;;5046710;28;20037;-73
2021/04/14 10:34:21;;;;;;;1.02;0.70;;;7.10;79.20;;;;;;5047804;28;20052;-74
2021/04/14 10:36:47;;;;;;;1.30;0.60;;;7.30;81.00;;;;;;5044518;28;20032;-74
2021/04/14 10:39:25;;;;;;;1.02;0.70;;;7.40;76.90;;;;;;5045821;28;20033;-73
2021/04/14 10:41:53;;;;;;;0.50;0.50;;;7.30;74.80;;;;;;5046615;28;20028;-73
2021/04/14 10:44:31;;;;;;;0.98;0.70;;;7.10;75.40;;;;;;5047575;28;20124;-73
2021/04/14 10:47:21;;;;;;;2.20;0.80;;;7.00;73.30;;;;;;5042978;28;20039;-73
2021/04/14 10:49:47;;;;;;;1.30;0.85;;;6.90;75.10;;;;;;5047129;28;20052;-73
2021/04/14 10:52:27;;;;;;;2.30;0.50;;;6.90;72.00;;;;;;5046799;28;20096;-73
2021/04/14 10:54:56;;;;;;;2.83;0.60;;;6.90;77.50;;;;;;5045064;28;20407;-73
2021/04/14 10:57:35;;;;;;;1.27;0.77;;;7.00;79.80;;;;;;5048006;28;20049;-75
2021/04/14 11:00:14;;;;;;;0.90;0.65;;;7.30;78.70;;;;;;5048574;28;20033;-74
2021/04/14 11:02:44;;;;;;;1.63;0.50;;;7.70;71.00;;;;;;5045057;28;20017;-73
2021/04/14 11:05:14;;;;;;;0.93;0.52;;;7.90;73.30;;;;;;5045638;28;20037;-73
2021/04/14 11:07:42;;;;;;;1.58;0.50;;;8.10;72.50;;;;;;5044426;28;20040;-75
2021/04/14 11:10:11;;;;;;;1.58;0.73;;;8.20;68.90;;;;;;5044709;28;20024;-73
2021/04/14 11:12:44;;;;;;;2.17;0.50;;;8.20;69.00;;;;;;5045733;28;20021;-75
2021/04/14 11:15:28;;;;;;;1.58;0.50;;;8.10;71.00;;;;;;5045402;28;20718;-74
2021/04/14 11:18:00;;;;;;;2.55;0.80;;;8.10;69.60;;;;;;5042924;28;20032;-73
2021/04/14 11:20:44;;;;;;;2.08;0.60;;;8.00;69.30;;;;;;5047128;28;20056;-73
2021/04/14 11:23:20;;;;;;;0.50;0.50;;;7.80;70.10;;;;;;5044925;28;20067;-74
2021/04/14 11:25:46;;;;;;;3.35;0.90;;;7.70;73.60;;;;;;5039652;28;20033;-76
2021/04/14 11:28:15;;;;;;;0.80;0.70;;;7.60;74.00;;;;;;5033329;28;20051;-74
2021/04/14 11:30:57;;;;;;;2.15;0.60;;;7.50;73.80;;;;;;5041701;28;20036;-74
2021/04/14 11:33:33;;;;;;;1.25;0.70;;;7.30;72.60;;;;;;5045205;28;20037;-74
2021/04/14 11:35:59;;;;;;;1.73;0.80;;;7.10;72.40;;;;;;5045565;28;20404;-73
2021/04/14 11:38:33;;;;;;;1.30;0.50;;;6.90;74.30;;;;;;5025513;28;20025;-73
2021/04/14 11:41:11;;;;;;;1.42;0.90;;;6.70;77.20;;;;;;5043851;28;20017;-74
2021/04/14 11:43:39;;;;;;;2.40;0.68;;;6.80;80.20;;;;;;5026186;28;20057;-73
2021/04/14 11:46:38;;;;;;;3.83;0.65;;;7.00;77.70;;;;;;5046670;28;20037;-74
2021/04/14 11:49:25;;;;;;;0.85;0.57;;;7.20;75.70;;;;;;5045427;28;20060;-73
2021/04/14 11:51:56;;;;;;;2.25;0.60;;;7.40;76.60;;;;;;5042196;28;20438;-73
2021/04/14 11:54:30;;;;;;;0.85;0.50;;;7.50;75.80;;;;;;5044563;28;20035;-73
2021/04/14 11:57:23;;;;;;;1.35;0.60;;;7.70;72.90;;;;;;5043659;28;20033;-74
2021/04/14 12:00:06;;;;;;;1.60;0.88;;;7.80;74.10;;;;;;5046447;28;20037;-73
2021/04/14 12:02:36;;;;;;;1.40;0.82;;;7.80;67.80;;;;;;5046061;28;20696;-74
2021/04/14 12:05:06;;;;;;;0.98;0.60;;;7.60;73.90;;;;;;5046359;28;20033;-74
2021/04/14 12:07:32;;;;;;;1.65;0.32;;;7.50;71.30;;;;;;5034208;28;20108;-74
2021/04/14 12:09:57;;;;;;;3.67;0.50;;;7.30;70.80;;;;;;5047362;28;20041;-74
2021/04/14 12:12:24;;;;;;;0.73;0.52;;;7.20;74.10;;;;;;5045556;28;20027;-76
2021/04/14 12:14:51;;;;;;;0.43;0.40;;;7.10;72.80;;;;;;5044484;28;20037;-76
2021/04/14 12:17:17;;;;;;;1.20;0.65;;;7.20;76.20;;;;;;5045320;28;20029;-74
2021/04/14 12:19:44;;;;;;;5.45;0.50;;;7.50;79.80;;;;;;5045542;28;20031;-75
2021/04/14 12:22:11;;;;;;;3.35;0.50;;;7.90;76.80;;;;;;5042274;28;20484;-73
2021/04/14 12:24:37;;;;;;;3.42;0.70;;;8.00;78.10;;;;;;5043369;28;20104;-74
2021/04/14 12:27:02;;;;;;;3.35;0.55;;;8.00;77.90;;;;;;5041095;28;20119;-74
2021/04/14 12:29:28;;;;;;;1.90;0.63;;;7.70;77.40;;;;;;5046669;28;20056;-73
2021/04/14 12:31:54;;;;;;;4.25;0.40;;;7.50;80.40;;;;;;5042634;28;20064;-73
2021/04/14 12:34:20;;;;;;;1.70;0.50;;;7.40;77.50;;;;;;5041352;28;20025;-73
2021/04/14 12:36:47;;;;;;;0.38;0.38;;;7.40;79.00;;;;;;5026323;28;20124;-74
2021/04/14 12:39:13;;;;;;;1.08;0.60;;;7.40;82.50;;;;;;5035815;28;20029;-72
2021/04/14 12:41:39;;;;;;;1.55;0.40;;;7.70;83.10;;;;;;5046209;28;20021;-73
2021/04/14 12:44:06;;;;;;;3.40;0.68;;;8.10;82.30;;;;;;5046167;28;20392;-73
2021/04/14 12:46:36;;;;;;;0.50;0.50;;;8.60;81.90;;;;;;5045582;28;20044;-73
2021/04/14 12:49:02;;;;;;;1.58;0.70;;;9.00;78.00;;;;;;5045092;28;20075;-73
2021/04/14 12:51:37;;;;;;;1.42;0.60;;;9.40;76.30;;;;;;5034293;28;20492;-72
2021/04/14 12:54:06;;;;;;;0.98;0.52;;;9.70;74.30;;;;;;5043473;28;20068;-72
2021/04/14 12:56:38;;;;;;;0.73;0.60;;;10.00;78.30;;;;;;5042803;28;20067;-72
2021/04/14 12:59:16;;;;;;;0.65;0.50;;;10.30;76.10;;;;;;5045653;28;20025;-73
2021/04/14 13:01:44;;;;;;;0.98;0.65;;;10.40;71.40;;;;;;5044834;28;20021;-74
2021/04/14 13:04:33;;;;;;;1.88;0.60;;;10.20;72.70;;;;;;5041242;28;20052;-72
2021/04/14 13:07:13;;;;;;;0.80;0.50;;;9.90;74.60;;;;;;5045457;28;20041;-72
2021/04/14 13:09:39;;;;;;;0.70;0.70;;;9.70;74.80;;;;;;5043426;28;20033;-72
2021/04/14 13:12:22;;;;;;;1.35;0.73;;;9.40;71.80;;;;;;5042101;28;20036;-74
2021/04/14 13:14:48;;;;;;;1.23;0.75;;;9.10;72.90;;;;;;5046125;28;20032;-72